sensor_id;sensor_type;location;lat;lon;timestamp;temperature;humidity
5218;DHT22;26539;51.064;6.346;2023-07-13T00:02:15;17.80;99.90
5218;DHT22;26539;51.064;6.346;2023-07-13T00:05:47;17.70;99.90
5218;DHT22;26539;51.064;6.346;2023-07-13T00:09:00;17.70;99.90
5218;DHT22;26539;51.064;6.346;2023-07-13T00:11:57;17.70;99.90
5218;DHT22;26539;51.064;6.346;2023-07-13T00:14:56;17.60;99.90
5218;DHT22;26539;51.064;6.346;2023-07-13T00:17:39;17.60;99.90
5218;DHT22;26539;51.064;6.346;2023-07-13T00:20:34;17.50;99.90
5218;DHT22;26539;51.064;6.346;2023-07-13T00:23:00;17.50;99.90
5218;DHT22;26539;51.064;6.346;2023-07-13T00:25:49;17.50;99.90
5218;DHT22;26539;51.064;6.346;2023-07-13T00:28:58;17.50;99.90
5218;DHT22;26539;51.064;6.346;2023-07-13T00:31:37;17.50;99.90
5218;DHT22;26539;51.064;6.346;2023-07-13T00:34:25;17.40;99.90
5218;DHT22;26539;51.064;6.346;2023-07-13T00:37:23;17.40;99.90
5218;DHT22;26539;51.064;6.346;2023-07-13T00:43:17;17.30;99.90
5218;DHT22;26539;51.064;6.346;2023-07-13T00:48:27;17.20;99.90
5218;DHT22;26539;51.064;6.346;2023-07-13T00:50:59;17.20;99.90
5218;DHT22;26539;51.064;6.346;2023-07-13T00:53:52;17.20;99.90
5218;DHT22;26539;51.064;6.346;2023-07-13T00:56:36;17.20;99.90
5218;DHT22;26539;51.064;6.346;2023-07-13T00:59:26;17.20;99.90
5218;DHT22;26539;51.064;6.346;2023-07-13T01:01:57;17.10;99.90
5218;DHT22;26539;51.064;6.346;2023-07-13T01:04:30;17.00;99.90
5218;DHT22;26539;51.064;6.346;2023-07-13T01:07:07;17.00;99.90
5218;DHT22;26539;51.064;6.346;2023-07-13T01:09:58;17.00;99.90
5218;DHT22;26539;51.064;6.346;2023-07-13T01:12:29;17.00;99.90
5218;DHT22;26539;51.064;6.346;2023-07-13T01:18:16;16.90;99.90
5218;DHT22;26539;51.064;6.346;2023-07-13T01:21:03;16.90;99.90
5218;DHT22;26539;51.064;6.346;2023-07-13T01:23:47;16.90;99.90
5218;DHT22;26539;51.064;6.346;2023-07-13T01:26:13;16.80;99.90
5218;DHT22;26539;51.064;6.346;2023-07-13T01:28:45;16.80;99.90
5218;DHT22;26539;51.064;6.346;2023-07-13T01:31:19;16.80;99.90
5218;DHT22;26539;51.064;6.346;2023-07-13T01:34:17;16.70;99.90
5218;DHT22;26539;51.064;6.346;2023-07-13T01:36:51;16.70;99.90
5218;DHT22;26539;51.064;6.346;2023-07-13T01:39:24;16.70;99.90
5218;DHT22;26539;51.064;6.346;2023-07-13T01:42:11;16.70;99.90
5218;DHT22;26539;51.064;6.346;2023-07-13T01:44:38;16.60;99.90
5218;DHT22;26539;51.064;6.346;2023-07-13T01:47:17;16.60;1.00
5218;DHT22;26539;51.064;6.346;2023-07-13T01:49:58;16.60;1.00
5218;DHT22;26539;51.064;6.346;2023-07-13T01:52:30;16.60;1.00
5218;DHT22;26539;51.064;6.346;2023-07-13T01:55:42;16.60;1.00
5218;DHT22;26539;51.064;6.346;2023-07-13T02:01:36;16.50;1.00
5218;DHT22;26539;51.064;6.346;2023-07-13T02:04:06;16.50;1.00
5218;DHT22;26539;51.064;6.346;2023-07-13T02:06:36;16.50;1.00
5218;DHT22;26539;51.064;6.346;2023-07-13T02:09:16;16.50;1.00
5218;DHT22;26539;51.064;6.346;2023-07-13T02:14:38;16.40;1.00
5218;DHT22;26539;51.064;6.346;2023-07-13T02:17:16;16.40;1.00
5218;DHT22;26539;51.064;6.346;2023-07-13T02:19:45;16.40;1.00
5218;DHT22;26539;51.064;6.346;2023-07-13T02:22:22;16.40;1.00
5218;DHT22;26539;51.064;6.346;2023-07-13T02:25:12;16.40;1.00
5218;DHT22;26539;51.064;6.346;2023-07-13T02:30:42;16.30;1.00
5218;DHT22;26539;51.064;6.346;2023-07-13T02:33:10;16.30;1.00
5218;DHT22;26539;51.064;6.346;2023-07-13T02:35:41;16.30;1.00
5218;DHT22;26539;51.064;6.346;2023-07-13T02:38:30;16.30;1.00
5218;DHT22;26539;51.064;6.346;2023-07-13T02:41:16;16.20;1.00
5218;DHT22;26539;51.064;6.346;2023-07-13T02:43:57;16.20;1.00
5218;DHT22;26539;51.064;6.346;2023-07-13T02:46:38;16.10;35.40
5218;DHT22;26539;51.064;6.346;2023-07-13T02:52:10;16.10;1.00
5218;DHT22;26539;51.064;6.346;2023-07-13T02:54:56;16.10;2.30
5218;DHT22;26539;51.064;6.346;2023-07-13T02:57:25;16.10;31.10
5218;DHT22;26539;51.064;6.346;2023-07-13T03:00:47;16.10;77.30
5218;DHT22;26539;51.064;6.346;2023-07-13T03:03:37;16.00;97.20
5218;DHT22;26539;51.064;6.346;2023-07-13T03:06:28;16.00;99.90
5218;DHT22;26539;51.064;6.346;2023-07-13T03:09:10;16.00;99.90
5218;DHT22;26539;51.064;6.346;2023-07-13T03:11:47;15.90;99.90
5218;DHT22;26539;51.064;6.346;2023-07-13T03:14:27;15.90;99.90
5218;DHT22;26539;51.064;6.346;2023-07-13T03:17:18;15.90;99.90
5218;DHT22;26539;51.064;6.346;2023-07-13T03:19:49;15.90;99.90
5218;DHT22;26539;51.064;6.346;2023-07-13T03:22:33;15.80;99.90
5218;DHT22;26539;51.064;6.346;2023-07-13T03:25:18;15.80;99.90
5218;DHT22;26539;51.064;6.346;2023-07-13T03:27:59;15.80;99.90
5218;DHT22;26539;51.064;6.346;2023-07-13T03:30:30;15.80;99.90
5218;DHT22;26539;51.064;6.346;2023-07-13T03:33:16;15.80;99.90
5218;DHT22;26539;51.064;6.346;2023-07-13T03:35:45;15.80;99.90
5218;DHT22;26539;51.064;6.346;2023-07-13T03:38:13;15.80;99.90
5218;DHT22;26539;51.064;6.346;2023-07-13T03:40:42;15.80;99.90
5218;DHT22;26539;51.064;6.346;2023-07-13T03:43:10;15.80;99.90
5218;DHT22;26539;51.064;6.346;2023-07-13T03:45:37;15.70;99.90
5218;DHT22;26539;51.064;6.346;2023-07-13T03:48:05;15.80;99.90
5218;DHT22;26539;51.064;6.346;2023-07-13T03:50:39;15.80;99.90
5218;DHT22;26539;51.064;6.346;2023-07-13T03:53:16;15.80;99.90
5218;DHT22;26539;51.064;6.346;2023-07-13T03:55:49;15.80;99.90
5218;DHT22;26539;51.064;6.346;2023-07-13T04:01:12;15.80;99.90
5218;DHT22;26539;51.064;6.346;2023-07-13T04:03:41;15.90;99.90
5218;DHT22;26539;51.064;6.346;2023-07-13T04:06:08;15.90;99.90
5218;DHT22;26539;51.064;6.346;2023-07-13T04:08:45;15.90;99.90
5218;DHT22;26539;51.064;6.346;2023-07-13T04:11:21;15.90;99.90
5218;DHT22;26539;51.064;6.346;2023-07-13T04:13:48;15.90;99.90
5218;DHT22;26539;51.064;6.346;2023-07-13T04:16:15;16.00;99.90
5218;DHT22;26539;51.064;6.346;2023-07-13T04:18:41;16.00;99.90
5218;DHT22;26539;51.064;6.346;2023-07-13T04:21:12;16.10;99.90
5218;DHT22;26539;51.064;6.346;2023-07-13T04:23:41;16.10;99.90
5218;DHT22;26539;51.064;6.346;2023-07-13T04:26:07;16.20;99.90
5218;DHT22;26539;51.064;6.346;2023-07-13T04:28:33;16.20;99.90
5218;DHT22;26539;51.064;6.346;2023-07-13T04:31:12;16.30;99.90
5218;DHT22;26539;51.064;6.346;2023-07-13T04:33:43;16.30;99.90
5218;DHT22;26539;51.064;6.346;2023-07-13T04:36:27;16.40;99.90
5218;DHT22;26539;51.064;6.346;2023-07-13T04:39:05;16.40;99.90
5218;DHT22;26539;51.064;6.346;2023-07-13T04:41:32;16.50;99.90
5218;DHT22;26539;51.064;6.346;2023-07-13T04:44:00;16.50;99.90
5218;DHT22;26539;51.064;6.346;2023-07-13T04:46:26;16.60;99.90
5218;DHT22;26539;51.064;6.346;2023-07-13T04:49:00;16.70;99.90
5218;DHT22;26539;51.064;6.346;2023-07-13T04:51:40;16.70;99.90
5218;DHT22;26539;51.064;6.346;2023-07-13T04:54:20;16.80;99.90
5218;DHT22;26539;51.064;6.346;2023-07-13T04:56:47;16.90;67.30
5218;DHT22;26539;51.064;6.346;2023-07-13T04:59:13;17.00;22.00
5218;DHT22;26539;51.064;6.346;2023-07-13T05:01:38;17.10;3.40
5218;DHT22;26539;51.064;6.346;2023-07-13T05:04:04;17.20;1.00
5218;DHT22;26539;51.064;6.346;2023-07-13T05:06:40;17.30;1.00
5218;DHT22;26539;51.064;6.346;2023-07-13T05:09:06;17.40;1.00
5218;DHT22;26539;51.064;6.346;2023-07-13T05:11:32;17.60;1.00
5218;DHT22;26539;51.064;6.346;2023-07-13T05:14:14;17.70;1.00
5218;DHT22;26539;51.064;6.346;2023-07-13T05:16:42;17.80;1.00
5218;DHT22;26539;51.064;6.346;2023-07-13T05:19:12;17.90;1.00
5218;DHT22;26539;51.064;6.346;2023-07-13T05:21:38;17.90;1.00
5218;DHT22;26539;51.064;6.346;2023-07-13T05:24:03;18.10;1.00
5218;DHT22;26539;51.064;6.346;2023-07-13T05:26:31;18.20;1.00
5218;DHT22;26539;51.064;6.346;2023-07-13T05:29:19;18.30;1.00
5218;DHT22;26539;51.064;6.346;2023-07-13T05:31:48;18.50;1.00
5218;DHT22;26539;51.064;6.346;2023-07-13T05:34:17;18.60;1.00
5218;DHT22;26539;51.064;6.346;2023-07-13T05:36:42;18.70;99.90
5218;DHT22;26539;51.064;6.346;2023-07-13T05:39:11;18.80;99.90
5218;DHT22;26539;51.064;6.346;2023-07-13T05:41:37;18.90;99.90
5218;DHT22;26539;51.064;6.346;2023-07-13T05:44:05;18.90;99.90
5218;DHT22;26539;51.064;6.346;2023-07-13T05:46:31;19.10;99.90
5218;DHT22;26539;51.064;6.346;2023-07-13T05:49:02;19.20;99.90
5218;DHT22;26539;51.064;6.346;2023-07-13T05:51:34;19.20;99.90
5218;DHT22;26539;51.064;6.346;2023-07-13T05:56:50;19.70;99.90
5218;DHT22;26539;51.064;6.346;2023-07-13T05:59:17;20.00;99.90
5218;DHT22;26539;51.064;6.346;2023-07-13T06:01:43;20.20;99.90
5218;DHT22;26539;51.064;6.346;2023-07-13T06:04:11;20.50;99.90
5218;DHT22;26539;51.064;6.346;2023-07-13T06:06:37;21.00;99.90
5218;DHT22;26539;51.064;6.346;2023-07-13T06:09:03;21.70;99.90
5218;DHT22;26539;51.064;6.346;2023-07-13T06:11:28;22.40;99.90
5218;DHT22;26539;51.064;6.346;2023-07-13T06:13:55;23.70;99.90
5218;DHT22;26539;51.064;6.346;2023-07-13T06:16:22;24.50;99.90
5218;DHT22;26539;51.064;6.346;2023-07-13T06:18:47;24.00;99.90
5218;DHT22;26539;51.064;6.346;2023-07-13T06:21:21;23.60;99.90
5218;DHT22;26539;51.064;6.346;2023-07-13T06:23:48;23.00;99.90
5218;DHT22;26539;51.064;6.346;2023-07-13T06:26:14;22.50;99.90
5218;DHT22;26539;51.064;6.346;2023-07-13T06:28:42;22.20;99.90
5218;DHT22;26539;51.064;6.346;2023-07-13T06:31:14;21.70;99.90
5218;DHT22;26539;51.064;6.346;2023-07-13T06:33:47;21.40;99.90
5218;DHT22;26539;51.064;6.346;2023-07-13T06:36:23;21.00;99.90
5218;DHT22;26539;51.064;6.346;2023-07-13T06:38:48;20.70;99.90
5218;DHT22;26539;51.064;6.346;2023-07-13T06:41:14;20.60;99.90
5218;DHT22;26539;51.064;6.346;2023-07-13T06:43:42;20.50;99.90
5218;DHT22;26539;51.064;6.346;2023-07-13T06:46:16;20.80;99.90
5218;DHT22;26539;51.064;6.346;2023-07-13T06:48:42;21.40;99.90
5218;DHT22;26539;51.064;6.346;2023-07-13T06:51:08;21.90;99.90
5218;DHT22;26539;51.064;6.346;2023-07-13T06:53:33;21.90;99.90
5218;DHT22;26539;51.064;6.346;2023-07-13T06:55:59;21.80;99.90
5218;DHT22;26539;51.064;6.346;2023-07-13T06:58:25;21.60;99.90
5218;DHT22;26539;51.064;6.346;2023-07-13T07:00:53;21.40;99.90
5218;DHT22;26539;51.064;6.346;2023-07-13T07:03:19;21.20;99.90
5218;DHT22;26539;51.064;6.346;2023-07-13T07:05:45;21.50;99.90
5218;DHT22;26539;51.064;6.346;2023-07-13T07:08:11;22.40;99.90
5218;DHT22;26539;51.064;6.346;2023-07-13T07:10:37;24.80;99.90
5218;DHT22;26539;51.064;6.346;2023-07-13T07:13:03;26.10;99.90
5218;DHT22;26539;51.064;6.346;2023-07-13T07:15:29;26.30;99.40
5218;DHT22;26539;51.064;6.346;2023-07-13T07:17:54;27.00;95.90
5218;DHT22;26539;51.064;6.346;2023-07-13T07:20:20;26.60;91.60
5218;DHT22;26539;51.064;6.346;2023-07-13T07:22:48;26.20;90.70
5218;DHT22;26539;51.064;6.346;2023-07-13T07:25:16;26.10;89.90
5218;DHT22;26539;51.064;6.346;2023-07-13T07:27:42;25.70;84.60
5218;DHT22;26539;51.064;6.346;2023-07-13T07:30:08;25.20;83.60
5218;DHT22;26539;51.064;6.346;2023-07-13T07:32:34;24.50;82.40
5218;DHT22;26539;51.064;6.346;2023-07-13T07:35:07;24.00;86.00
5218;DHT22;26539;51.064;6.346;2023-07-13T07:37:32;23.60;88.00
5218;DHT22;26539;51.064;6.346;2023-07-13T07:39:58;23.40;90.90
5218;DHT22;26539;51.064;6.346;2023-07-13T07:42:29;23.20;92.50
5218;DHT22;26539;51.064;6.346;2023-07-13T07:48:07;22.90;95.50
5218;DHT22;26539;51.064;6.346;2023-07-13T07:50:55;23.00;96.40
5218;DHT22;26539;51.064;6.346;2023-07-13T07:56:11;23.20;97.50
5218;DHT22;26539;51.064;6.346;2023-07-13T08:02:35;23.40;97.00
5218;DHT22;26539;51.064;6.346;2023-07-13T08:05:24;23.90;96.60
5218;DHT22;26539;51.064;6.346;2023-07-13T08:08:13;24.50;95.80
5218;DHT22;26539;51.064;6.346;2023-07-13T08:11:08;24.80;93.30
5218;DHT22;26539;51.064;6.346;2023-07-13T08:17:00;25.40;91.80
5218;DHT22;26539;51.064;6.346;2023-07-13T08:22:46;26.10;84.20
5218;DHT22;26539;51.064;6.346;2023-07-13T08:25:23;26.40;83.40
5218;DHT22;26539;51.064;6.346;2023-07-13T08:27:54;26.10;76.80
5218;DHT22;26539;51.064;6.346;2023-07-13T08:30:34;25.60;74.50
5218;DHT22;26539;51.064;6.346;2023-07-13T08:33:04;25.80;73.90
5218;DHT22;26539;51.064;6.346;2023-07-13T08:35:49;26.00;73.40
5218;DHT22;26539;51.064;6.346;2023-07-13T08:38:31;26.30;72.10
5218;DHT22;26539;51.064;6.346;2023-07-13T08:41:13;27.70;67.20
5218;DHT22;26539;51.064;6.346;2023-07-13T08:44:17;28.90;63.90
5218;DHT22;26539;51.064;6.346;2023-07-13T08:46:57;30.40;60.30
5218;DHT22;26539;51.064;6.346;2023-07-13T08:49:33;32.10;72.80
5218;DHT22;26539;51.064;6.346;2023-07-13T08:57:47;31.50;46.30
5218;DHT22;26539;51.064;6.346;2023-07-13T09:04:07;30.80;35.60
5218;DHT22;26539;51.064;6.346;2023-07-13T09:10:17;34.30;35.10
5218;DHT22;26539;51.064;6.346;2023-07-13T09:15:54;37.50;21.10
5218;DHT22;26539;51.064;6.346;2023-07-13T09:18:32;37.80;14.70
5218;DHT22;26539;51.064;6.346;2023-07-13T09:21:00;38.40;10.50
5218;DHT22;26539;51.064;6.346;2023-07-13T09:23:31;37.40;6.60
5218;DHT22;26539;51.064;6.346;2023-07-13T09:26:27;39.10;5.50
5218;DHT22;26539;51.064;6.346;2023-07-13T09:29:34;40.80;1.90
5218;DHT22;26539;51.064;6.346;2023-07-13T09:32:07;40.10;1.00
5218;DHT22;26539;51.064;6.346;2023-07-13T09:34:38;40.60;1.00
5218;DHT22;26539;51.064;6.346;2023-07-13T09:37:07;41.10;1.00
5218;DHT22;26539;51.064;6.346;2023-07-13T09:39:39;39.50;1.00
5218;DHT22;26539;51.064;6.346;2023-07-13T09:44:59;38.10;1.00
5218;DHT22;26539;51.064;6.346;2023-07-13T09:47:43;37.40;1.00
5218;DHT22;26539;51.064;6.346;2023-07-13T09:50:17;37.70;1.00
5218;DHT22;26539;51.064;6.346;2023-07-13T09:52:50;37.40;1.00
5218;DHT22;26539;51.064;6.346;2023-07-13T09:55:38;36.50;1.00
5218;DHT22;26539;51.064;6.346;2023-07-13T09:58:21;35.60;1.00
5218;DHT22;26539;51.064;6.346;2023-07-13T10:01:09;34.80;1.00
5218;DHT22;26539;51.064;6.346;2023-07-13T10:03:38;33.80;1.00
5218;DHT22;26539;51.064;6.346;2023-07-13T10:06:34;35.20;1.00
5218;DHT22;26539;51.064;6.346;2023-07-13T10:09:09;34.90;1.00
5218;DHT22;26539;51.064;6.346;2023-07-13T10:11:42;35.10;1.00
5218;DHT22;26539;51.064;6.346;2023-07-13T10:14:24;35.80;1.00
5218;DHT22;26539;51.064;6.346;2023-07-13T10:16:58;35.10;1.00
5218;DHT22;26539;51.064;6.346;2023-07-13T10:19:31;34.50;1.00
5218;DHT22;26539;51.064;6.346;2023-07-13T10:24:42;35.10;1.00
5218;DHT22;26539;51.064;6.346;2023-07-13T10:27:41;33.50;1.00
5218;DHT22;26539;51.064;6.346;2023-07-13T10:30:21;33.70;1.00
5218;DHT22;26539;51.064;6.346;2023-07-13T10:33:05;33.50;1.00
5218;DHT22;26539;51.064;6.346;2023-07-13T10:35:43;33.00;1.00
5218;DHT22;26539;51.064;6.346;2023-07-13T10:38:27;33.60;1.00
5218;DHT22;26539;51.064;6.346;2023-07-13T10:41:03;34.10;1.00
5218;DHT22;26539;51.064;6.346;2023-07-13T10:43:41;35.60;1.00
5218;DHT22;26539;51.064;6.346;2023-07-13T10:46:16;37.40;1.00
5218;DHT22;26539;51.064;6.346;2023-07-13T10:48:51;35.90;1.00
5218;DHT22;26539;51.064;6.346;2023-07-13T10:51:29;34.30;1.00
5218;DHT22;26539;51.064;6.346;2023-07-13T10:54:21;32.80;1.00
5218;DHT22;26539;51.064;6.346;2023-07-13T10:57:22;31.60;1.00
5218;DHT22;26539;51.064;6.346;2023-07-13T11:00:19;30.80;1.00
5218;DHT22;26539;51.064;6.346;2023-07-13T11:02:59;30.70;1.00
5218;DHT22;26539;51.064;6.346;2023-07-13T11:05:43;30.50;1.00
5218;DHT22;26539;51.064;6.346;2023-07-13T11:11:32;30.50;1.00
5218;DHT22;26539;51.064;6.346;2023-07-13T11:14:01;33.20;1.00
5218;DHT22;26539;51.064;6.346;2023-07-13T11:16:34;34.90;1.00
5218;DHT22;26539;51.064;6.346;2023-07-13T11:21:31;36.50;1.00
5218;DHT22;26539;51.064;6.346;2023-07-13T11:24:16;35.30;1.00
5218;DHT22;26539;51.064;6.346;2023-07-13T11:26:51;35.10;1.00
5218;DHT22;26539;51.064;6.346;2023-07-13T11:31:51;35.90;1.00
5218;DHT22;26539;51.064;6.346;2023-07-13T11:34:21;36.10;1.00
5218;DHT22;26539;51.064;6.346;2023-07-13T11:39:58;36.90;1.00
5218;DHT22;26539;51.064;6.346;2023-07-13T11:42:31;36.80;1.00
5218;DHT22;26539;51.064;6.346;2023-07-13T11:44:57;36.90;1.00
5218;DHT22;26539;51.064;6.346;2023-07-13T11:47:25;36.60;1.00
5218;DHT22;26539;51.064;6.346;2023-07-13T11:49:55;35.50;1.00
5218;DHT22;26539;51.064;6.346;2023-07-13T11:52:34;35.40;1.00
5218;DHT22;26539;51.064;6.346;2023-07-13T11:55:19;35.80;1.00
5218;DHT22;26539;51.064;6.346;2023-07-13T11:57:54;35.80;1.00
5218;DHT22;26539;51.064;6.346;2023-07-13T12:00:28;35.30;1.00
5218;DHT22;26539;51.064;6.346;2023-07-13T12:02:57;35.90;1.00
5218;DHT22;26539;51.064;6.346;2023-07-13T12:05:24;35.90;1.00
5218;DHT22;26539;51.064;6.346;2023-07-13T12:07:51;35.70;1.00
5218;DHT22;26539;51.064;6.346;2023-07-13T12:10:28;35.40;1.00
5218;DHT22;26539;51.064;6.346;2023-07-13T12:13:03;34.70;1.00
5218;DHT22;26539;51.064;6.346;2023-07-13T12:15:40;34.50;1.00
5218;DHT22;26539;51.064;6.346;2023-07-13T12:18:19;35.00;1.00
5218;DHT22;26539;51.064;6.346;2023-07-13T12:20:46;34.90;1.00
5218;DHT22;26539;51.064;6.346;2023-07-13T12:23:30;34.70;1.00
5218;DHT22;26539;51.064;6.346;2023-07-13T12:25:57;34.20;1.00
5218;DHT22;26539;51.064;6.346;2023-07-13T12:28:45;33.80;1.00
5218;DHT22;26539;51.064;6.346;2023-07-13T12:31:29;33.90;1.00
5218;DHT22;26539;51.064;6.346;2023-07-13T12:34:17;33.30;1.00
5218;DHT22;26539;51.064;6.346;2023-07-13T12:37:08;33.10;1.00
5218;DHT22;26539;51.064;6.346;2023-07-13T12:39:43;32.90;1.00
5218;DHT22;26539;51.064;6.346;2023-07-13T12:44:49;33.90;1.00
5218;DHT22;26539;51.064;6.346;2023-07-13T12:47:23;33.20;1.00
5218;DHT22;26539;51.064;6.346;2023-07-13T12:49:53;33.00;1.00
5218;DHT22;26539;51.064;6.346;2023-07-13T12:52:24;33.10;1.00
5218;DHT22;26539;51.064;6.346;2023-07-13T12:54:58;32.60;1.00
5218;DHT22;26539;51.064;6.346;2023-07-13T12:57:26;31.90;1.00
5218;DHT22;26539;51.064;6.346;2023-07-13T13:00:03;32.20;1.00
5218;DHT22;26539;51.064;6.346;2023-07-13T13:02:32;32.30;1.00
5218;DHT22;26539;51.064;6.346;2023-07-13T13:04:59;32.30;1.00
5218;DHT22;26539;51.064;6.346;2023-07-13T13:07:25;32.70;1.00
5218;DHT22;26539;51.064;6.346;2023-07-13T13:09:51;32.60;1.00
5218;DHT22;26539;51.064;6.346;2023-07-13T13:12:19;32.70;1.00
5218;DHT22;26539;51.064;6.346;2023-07-13T13:14:44;32.70;1.00
5218;DHT22;26539;51.064;6.346;2023-07-13T13:17:23;32.60;1.00
5218;DHT22;26539;51.064;6.346;2023-07-13T13:19:53;32.20;1.00
5218;DHT22;26539;51.064;6.346;2023-07-13T13:22:20;32.50;1.00
5218;DHT22;26539;51.064;6.346;2023-07-13T13:24:45;32.60;1.00
5218;DHT22;26539;51.064;6.346;2023-07-13T13:27:22;32.30;1.00
5218;DHT22;26539;51.064;6.346;2023-07-13T13:29:50;31.60;1.00
5218;DHT22;26539;51.064;6.346;2023-07-13T13:32:19;31.40;1.00
5218;DHT22;26539;51.064;6.346;2023-07-13T13:34:45;31.60;1.00
5218;DHT22;26539;51.064;6.346;2023-07-13T13:37:22;31.50;1.00
5218;DHT22;26539;51.064;6.346;2023-07-13T13:39:48;31.70;1.00
5218;DHT22;26539;51.064;6.346;2023-07-13T13:42:15;31.80;1.00
5218;DHT22;26539;51.064;6.346;2023-07-13T13:44:40;31.70;1.00
5218;DHT22;26539;51.064;6.346;2023-07-13T13:47:27;31.70;1.00
5218;DHT22;26539;51.064;6.346;2023-07-13T13:49:56;31.40;1.00
5218;DHT22;26539;51.064;6.346;2023-07-13T13:52:21;31.10;1.00
5218;DHT22;26539;51.064;6.346;2023-07-13T13:54:47;31.20;1.00
5218;DHT22;26539;51.064;6.346;2023-07-13T13:57:12;31.20;1.00
5218;DHT22;26539;51.064;6.346;2023-07-13T13:59:38;30.90;1.00
5218;DHT22;26539;51.064;6.346;2023-07-13T14:02:26;30.70;1.00
5218;DHT22;26539;51.064;6.346;2023-07-13T14:04:58;30.50;1.00
5218;DHT22;26539;51.064;6.346;2023-07-13T14:07:25;30.30;1.00
5218;DHT22;26539;51.064;6.346;2023-07-13T14:09:52;30.20;1.00
5218;DHT22;26539;51.064;6.346;2023-07-13T14:12:18;30.20;1.00
5218;DHT22;26539;51.064;6.346;2023-07-13T14:14:44;30.20;1.00
5218;DHT22;26539;51.064;6.346;2023-07-13T14:17:29;29.90;1.00
5218;DHT22;26539;51.064;6.346;2023-07-13T14:19:56;29.70;1.00
5218;DHT22;26539;51.064;6.346;2023-07-13T14:22:26;29.40;1.00
5218;DHT22;26539;51.064;6.346;2023-07-13T14:24:54;29.10;1.00
5218;DHT22;26539;51.064;6.346;2023-07-13T14:27:21;28.80;1.00
5218;DHT22;26539;51.064;6.346;2023-07-13T14:29:47;28.50;1.00
5218;DHT22;26539;51.064;6.346;2023-07-13T14:32:12;28.20;1.00
5218;DHT22;26539;51.064;6.346;2023-07-13T14:34:39;27.80;1.00
5218;DHT22;26539;51.064;6.346;2023-07-13T14:37:05;27.60;1.00
5218;DHT22;26539;51.064;6.346;2023-07-13T14:39:31;27.40;1.00
5218;DHT22;26539;51.064;6.346;2023-07-13T14:41:57;27.20;1.00
5218;DHT22;26539;51.064;6.346;2023-07-13T14:44:29;26.80;1.00
5218;DHT22;26539;51.064;6.346;2023-07-13T14:46:56;26.50;1.00
5218;DHT22;26539;51.064;6.346;2023-07-13T14:49:31;26.10;1.00
5218;DHT22;26539;51.064;6.346;2023-07-13T14:54:53;25.50;1.00
5218;DHT22;26539;51.064;6.346;2023-07-13T14:57:20;25.10;1.00
5218;DHT22;26539;51.064;6.346;2023-07-13T14:59:47;24.60;1.00
5218;DHT22;26539;51.064;6.346;2023-07-13T15:02:18;24.20;1.00
5218;DHT22;26539;51.064;6.346;2023-07-13T15:04:47;23.90;1.00
5218;DHT22;26539;51.064;6.346;2023-07-13T15:07:13;23.70;1.00
5218;DHT22;26539;51.064;6.346;2023-07-13T15:10:01;23.50;1.00
5218;DHT22;26539;51.064;6.346;2023-07-13T15:12:27;23.40;1.00
5218;DHT22;26539;51.064;6.346;2023-07-13T15:14:53;23.50;1.70
5218;DHT22;26539;51.064;6.346;2023-07-13T15:17:45;23.60;3.40
5218;DHT22;26539;51.064;6.346;2023-07-13T15:20:32;23.50;5.00
5218;DHT22;26539;51.064;6.346;2023-07-13T15:22:59;23.60;6.70
5218;DHT22;26539;51.064;6.346;2023-07-13T15:25:32;23.50;7.70
5218;DHT22;26539;51.064;6.346;2023-07-13T15:28:01;23.50;9.30
5218;DHT22;26539;51.064;6.346;2023-07-13T15:30:30;23.40;10.20
5218;DHT22;26539;51.064;6.346;2023-07-13T15:33:05;23.30;11.10
5218;DHT22;26539;51.064;6.346;2023-07-13T15:35:34;23.20;11.30
5218;DHT22;26539;51.064;6.346;2023-07-13T15:38:00;23.20;12.30
5218;DHT22;26539;51.064;6.346;2023-07-13T15:40:29;23.10;12.80
5218;DHT22;26539;51.064;6.346;2023-07-13T15:42:55;23.10;13.90
5218;DHT22;26539;51.064;6.346;2023-07-13T15:45:24;23.10;15.10
5218;DHT22;26539;51.064;6.346;2023-07-13T15:47:50;23.10;16.10
5218;DHT22;26539;51.064;6.346;2023-07-13T15:50:19;23.10;16.80
5218;DHT22;26539;51.064;6.346;2023-07-13T15:52:50;23.20;17.20
5218;DHT22;26539;51.064;6.346;2023-07-13T15:55:17;23.20;17.80
5218;DHT22;26539;51.064;6.346;2023-07-13T15:57:50;23.40;18.80
5218;DHT22;26539;51.064;6.346;2023-07-13T16:02:47;23.50;18.50
5218;DHT22;26539;51.064;6.346;2023-07-13T16:05:13;23.50;19.40
5218;DHT22;26539;51.064;6.346;2023-07-13T16:07:41;23.60;19.20
5218;DHT22;26539;51.064;6.346;2023-07-13T16:10:13;23.60;19.40
5218;DHT22;26539;51.064;6.346;2023-07-13T16:12:39;23.60;19.50
5218;DHT22;26539;51.064;6.346;2023-07-13T16:15:14;23.50;19.50
5218;DHT22;26539;51.064;6.346;2023-07-13T16:17:41;23.50;19.00
5218;DHT22;26539;51.064;6.346;2023-07-13T16:20:08;23.50;20.10
5218;DHT22;26539;51.064;6.346;2023-07-13T16:22:37;23.40;19.50
5218;DHT22;26539;51.064;6.346;2023-07-13T16:25:19;23.40;18.70
5218;DHT22;26539;51.064;6.346;2023-07-13T16:27:48;23.60;19.00
5218;DHT22;26539;51.064;6.346;2023-07-13T16:30:20;23.80;19.00
5218;DHT22;26539;51.064;6.346;2023-07-13T16:32:50;24.00;19.60
5218;DHT22;26539;51.064;6.346;2023-07-13T16:35:36;24.20;19.10
5218;DHT22;26539;51.064;6.346;2023-07-13T16:38:30;24.40;19.10
5218;DHT22;26539;51.064;6.346;2023-07-13T16:40:58;24.70;19.70
5218;DHT22;26539;51.064;6.346;2023-07-13T16:43:28;24.80;19.00
5218;DHT22;26539;51.064;6.346;2023-07-13T16:46:01;24.80;19.00
5218;DHT22;26539;51.064;6.346;2023-07-13T16:48:33;24.90;19.10
5218;DHT22;26539;51.064;6.346;2023-07-13T16:50:58;24.90;19.50
5218;DHT22;26539;51.064;6.346;2023-07-13T16:53:27;24.90;19.70
5218;DHT22;26539;51.064;6.346;2023-07-13T16:55:56;24.80;19.10
5218;DHT22;26539;51.064;6.346;2023-07-13T16:58:23;24.70;17.90
5218;DHT22;26539;51.064;6.346;2023-07-13T17:00:51;24.70;17.90
5218;DHT22;26539;51.064;6.346;2023-07-13T17:03:18;24.80;18.00
5218;DHT22;26539;51.064;6.346;2023-07-13T17:05:44;25.00;18.20
5218;DHT22;26539;51.064;6.346;2023-07-13T17:08:21;25.10;18.60
5218;DHT22;26539;51.064;6.346;2023-07-13T17:10:52;25.20;19.30
5218;DHT22;26539;51.064;6.346;2023-07-13T17:13:24;25.30;18.80
5218;DHT22;26539;51.064;6.346;2023-07-13T17:15:55;25.30;18.40
5218;DHT22;26539;51.064;6.346;2023-07-13T17:18:31;25.30;17.90
5218;DHT22;26539;51.064;6.346;2023-07-13T17:21:10;25.20;16.90
5218;DHT22;26539;51.064;6.346;2023-07-13T17:23:37;25.10;15.90
5218;DHT22;26539;51.064;6.346;2023-07-13T17:26:04;24.90;15.90
5218;DHT22;26539;51.064;6.346;2023-07-13T17:28:30;24.70;15.80
5218;DHT22;26539;51.064;6.346;2023-07-13T17:30:56;24.50;15.10
5218;DHT22;26539;51.064;6.346;2023-07-13T17:33:32;24.30;14.80
5218;DHT22;26539;51.064;6.346;2023-07-13T17:36:06;24.30;15.10
5218;DHT22;26539;51.064;6.346;2023-07-13T17:38:54;24.20;15.60
5218;DHT22;26539;51.064;6.346;2023-07-13T17:41:57;23.90;15.60
5218;DHT22;26539;51.064;6.346;2023-07-13T17:54:00;23.50;16.90
5218;DHT22;26539;51.064;6.346;2023-07-13T18:04:24;23.40;18.20
5218;DHT22;26539;51.064;6.346;2023-07-13T18:11:00;23.30;19.50
5218;DHT22;26539;51.064;6.346;2023-07-13T18:17:37;23.30;21.00
5218;DHT22;26539;51.064;6.346;2023-07-13T18:20:21;23.20;21.50
5218;DHT22;26539;51.064;6.346;2023-07-13T18:36:59;23.00;24.20
5218;DHT22;26539;51.064;6.346;2023-07-13T18:40:19;22.90;25.10
5218;DHT22;26539;51.064;6.346;2023-07-13T18:43:22;22.90;25.80